sensor_id;sensor_type;location;lat;lon;timestamp;temperature;humidity
43049;DHT22;28673;44.412;11.918;2023-04-03T00:01:19;8.90;99.90
43049;DHT22;28673;44.412;11.918;2023-04-03T00:03:44;8.90;99.90
43049;DHT22;28673;44.412;11.918;2023-04-03T00:06:11;8.90;99.90
43049;DHT22;28673;44.412;11.918;2023-04-03T00:08:38;8.80;99.90
43049;DHT22;28673;44.412;11.918;2023-04-03T00:11:05;8.80;99.90
43049;DHT22;28673;44.412;11.918;2023-04-03T00:13:32;8.70;99.90
43049;DHT22;28673;44.412;11.918;2023-04-03T00:15:58;8.60;99.90
43049;DHT22;28673;44.412;11.918;2023-04-03T00:18:24;8.60;99.90
43049;DHT22;28673;44.412;11.918;2023-04-03T00:20:50;8.60;99.90
43049;DHT22;28673;44.412;11.918;2023-04-03T00:23:16;8.50;99.90
43049;DHT22;28673;44.412;11.918;2023-04-03T00:25:43;8.50;99.90
43049;DHT22;28673;44.412;11.918;2023-04-03T00:28:09;8.50;99.90
43049;DHT22;28673;44.412;11.918;2023-04-03T00:30:35;8.50;99.90
43049;DHT22;28673;44.412;11.918;2023-04-03T00:33:01;8.50;99.90
43049;DHT22;28673;44.412;11.918;2023-04-03T00:35:30;8.50;99.90
43049;DHT22;28673;44.412;11.918;2023-04-03T00:37:56;8.50;99.90
43049;DHT22;28673;44.412;11.918;2023-04-03T00:40:25;8.50;99.90
43049;DHT22;28673;44.412;11.918;2023-04-03T00:42:56;8.60;99.90
43049;DHT22;28673;44.412;11.918;2023-04-03T00:45:36;8.60;99.90
43049;DHT22;28673;44.412;11.918;2023-04-03T00:48:04;8.60;99.90
43049;DHT22;28673;44.412;11.918;2023-04-03T00:50:34;8.60;99.90
43049;DHT22;28673;44.412;11.918;2023-04-03T00:53:01;8.70;99.90
43049;DHT22;28673;44.412;11.918;2023-04-03T00:55:27;8.80;99.90
43049;DHT22;28673;44.412;11.918;2023-04-03T00:57:55;8.80;99.90
43049;DHT22;28673;44.412;11.918;2023-04-03T01:00:22;8.80;99.90
43049;DHT22;28673;44.412;11.918;2023-04-03T01:02:49;8.80;99.90
43049;DHT22;28673;44.412;11.918;2023-04-03T01:05:17;8.90;99.90
43049;DHT22;28673;44.412;11.918;2023-04-03T01:07:45;8.90;99.90
43049;DHT22;28673;44.412;11.918;2023-04-03T01:10:15;8.90;99.90
43049;DHT22;28673;44.412;11.918;2023-04-03T01:12:43;8.90;99.90
43049;DHT22;28673;44.412;11.918;2023-04-03T01:15:16;9.00;99.90
43049;DHT22;28673;44.412;11.918;2023-04-03T01:17:43;9.00;99.90
43049;DHT22;28673;44.412;11.918;2023-04-03T01:25:32;9.10;99.90
43049;DHT22;28673;44.412;11.918;2023-04-03T01:27:59;9.10;99.90
43049;DHT22;28673;44.412;11.918;2023-04-03T01:30:30;9.10;99.90
43049;DHT22;28673;44.412;11.918;2023-04-03T01:32:58;9.10;99.90
43049;DHT22;28673;44.412;11.918;2023-04-03T01:35:24;9.20;99.90
43049;DHT22;28673;44.412;11.918;2023-04-03T01:37:51;9.20;99.90
43049;DHT22;28673;44.412;11.918;2023-04-03T01:40:17;9.20;99.90
43049;DHT22;28673;44.412;11.918;2023-04-03T01:42:45;9.20;99.90
43049;DHT22;28673;44.412;11.918;2023-04-03T01:45:12;9.20;99.90
43049;DHT22;28673;44.412;11.918;2023-04-03T01:47:37;9.20;99.90
43049;DHT22;28673;44.412;11.918;2023-04-03T01:50:05;9.20;99.90
43049;DHT22;28673;44.412;11.918;2023-04-03T01:52:33;9.20;99.90
43049;DHT22;28673;44.412;11.918;2023-04-03T01:54:59;9.20;99.90
43049;DHT22;28673;44.412;11.918;2023-04-03T01:57:25;9.20;99.90
43049;DHT22;28673;44.412;11.918;2023-04-03T01:59:51;9.20;99.90
43049;DHT22;28673;44.412;11.918;2023-04-03T02:02:17;9.20;99.90
43049;DHT22;28673;44.412;11.918;2023-04-03T02:04:42;9.10;99.90
43049;DHT22;28673;44.412;11.918;2023-04-03T02:07:08;9.10;99.90
43049;DHT22;28673;44.412;11.918;2023-04-03T02:09:34;9.10;99.90
43049;DHT22;28673;44.412;11.918;2023-04-03T02:12:01;9.10;99.90
43049;DHT22;28673;44.412;11.918;2023-04-03T02:14:27;9.10;99.90
43049;DHT22;28673;44.412;11.918;2023-04-03T02:16:53;9.10;99.90
43049;DHT22;28673;44.412;11.918;2023-04-03T02:19:22;9.10;99.90
43049;DHT22;28673;44.412;11.918;2023-04-03T02:21:48;9.10;99.90
43049;DHT22;28673;44.412;11.918;2023-04-03T02:24:14;9.10;99.90
43049;DHT22;28673;44.412;11.918;2023-04-03T02:26:40;9.10;99.90
43049;DHT22;28673;44.412;11.918;2023-04-03T02:29:06;9.10;99.90
43049;DHT22;28673;44.412;11.918;2023-04-03T02:31:32;9.10;99.90
43049;DHT22;28673;44.412;11.918;2023-04-03T02:34:00;9.10;99.90
43049;DHT22;28673;44.412;11.918;2023-04-03T02:36:33;9.10;99.90
43049;DHT22;28673;44.412;11.918;2023-04-03T02:39:04;9.10;99.90
43049;DHT22;28673;44.412;11.918;2023-04-03T02:41:29;9.10;99.90
43049;DHT22;28673;44.412;11.918;2023-04-03T02:44:03;9.10;99.90
43049;DHT22;28673;44.412;11.918;2023-04-03T02:46:29;9.10;99.90
43049;DHT22;28673;44.412;11.918;2023-04-03T02:48:55;9.00;99.90
43049;DHT22;28673;44.412;11.918;2023-04-03T02:51:21;9.00;99.90
43049;DHT22;28673;44.412;11.918;2023-04-03T02:53:49;8.90;99.90
43049;DHT22;28673;44.412;11.918;2023-04-03T02:56:19;8.90;99.90
43049;DHT22;28673;44.412;11.918;2023-04-03T02:58:46;8.90;99.90
43049;DHT22;28673;44.412;11.918;2023-04-03T03:01:18;8.80;99.90
43049;DHT22;28673;44.412;11.918;2023-04-03T03:03:48;8.80;99.90
43049;DHT22;28673;44.412;11.918;2023-04-03T03:06:16;8.80;99.90
43049;DHT22;28673;44.412;11.918;2023-04-03T03:08:43;8.80;99.90
43049;DHT22;28673;44.412;11.918;2023-04-03T03:11:12;8.80;99.90
43049;DHT22;28673;44.412;11.918;2023-04-03T03:13:38;8.80;99.90
43049;DHT22;28673;44.412;11.918;2023-04-03T03:16:04;8.80;99.90
43049;DHT22;28673;44.412;11.918;2023-04-03T03:18:34;8.80;99.90
43049;DHT22;28673;44.412;11.918;2023-04-03T03:21:01;8.70;99.90
43049;DHT22;28673;44.412;11.918;2023-04-03T03:23:29;8.80;99.90
43049;DHT22;28673;44.412;11.918;2023-04-03T03:25:56;8.80;99.90
43049;DHT22;28673;44.412;11.918;2023-04-03T03:28:23;8.80;99.90
43049;DHT22;28673;44.412;11.918;2023-04-03T03:30:48;8.80;99.90
43049;DHT22;28673;44.412;11.918;2023-04-03T03:33:14;8.80;99.90
43049;DHT22;28673;44.412;11.918;2023-04-03T03:35:41;8.90;99.90
43049;DHT22;28673;44.412;11.918;2023-04-03T03:38:07;8.90;99.90
43049;DHT22;28673;44.412;11.918;2023-04-03T03:40:33;8.90;99.90
43049;DHT22;28673;44.412;11.918;2023-04-03T03:42:59;9.00;99.90
43049;DHT22;28673;44.412;11.918;2023-04-03T03:45:25;9.00;99.90
43049;DHT22;28673;44.412;11.918;2023-04-03T03:47:51;9.10;99.90
43049;DHT22;28673;44.412;11.918;2023-04-03T03:50:17;9.10;99.90
43049;DHT22;28673;44.412;11.918;2023-04-03T03:52:43;9.10;99.90
43049;DHT22;28673;44.412;11.918;2023-04-03T03:55:09;9.10;99.90
43049;DHT22;28673;44.412;11.918;2023-04-03T03:57:36;9.20;99.90
43049;DHT22;28673;44.412;11.918;2023-04-03T04:00:03;9.20;99.90
43049;DHT22;28673;44.412;11.918;2023-04-03T04:02:30;9.20;99.90
43049;DHT22;28673;44.412;11.918;2023-04-03T04:04:56;9.10;99.90
43049;DHT22;28673;44.412;11.918;2023-04-03T04:07:22;9.10;99.90
43049;DHT22;28673;44.412;11.918;2023-04-03T04:09:48;9.10;99.90
43049;DHT22;28673;44.412;11.918;2023-04-03T04:12:14;9.10;99.90
43049;DHT22;28673;44.412;11.918;2023-04-03T04:14:41;9.10;99.90
43049;DHT22;28673;44.412;11.918;2023-04-03T04:17:08;9.10;99.90
43049;DHT22;28673;44.412;11.918;2023-04-03T04:19:36;9.10;99.90
43049;DHT22;28673;44.412;11.918;2023-04-03T04:22:02;9.10;99.90
43049;DHT22;28673;44.412;11.918;2023-04-03T04:24:29;9.10;99.90
43049;DHT22;28673;44.412;11.918;2023-04-03T04:26:56;9.10;99.90
43049;DHT22;28673;44.412;11.918;2023-04-03T04:29:23;9.10;99.90
43049;DHT22;28673;44.412;11.918;2023-04-03T04:31:51;9.10;99.90
43049;DHT22;28673;44.412;11.918;2023-04-03T04:34:19;9.10;99.90
43049;DHT22;28673;44.412;11.918;2023-04-03T04:36:47;9.10;99.90
43049;DHT22;28673;44.412;11.918;2023-04-03T04:39:18;9.10;99.90
43049;DHT22;28673;44.412;11.918;2023-04-03T04:41:47;9.10;99.90
43049;DHT22;28673;44.412;11.918;2023-04-03T04:44:14;9.10;99.90
43049;DHT22;28673;44.412;11.918;2023-04-03T04:46:44;9.10;99.90
43049;DHT22;28673;44.412;11.918;2023-04-03T04:49:12;9.10;99.90
43049;DHT22;28673;44.412;11.918;2023-04-03T04:51:44;9.10;99.90
43049;DHT22;28673;44.412;11.918;2023-04-03T04:54:16;9.10;99.90
43049;DHT22;28673;44.412;11.918;2023-04-03T04:56:46;9.10;99.90
43049;DHT22;28673;44.412;11.918;2023-04-03T04:59:14;9.10;99.90
43049;DHT22;28673;44.412;11.918;2023-04-03T05:04:45;9.10;99.90
43049;DHT22;28673;44.412;11.918;2023-04-03T05:07:21;9.20;99.90
43049;DHT22;28673;44.412;11.918;2023-04-03T05:09:50;9.20;99.90
43049;DHT22;28673;44.412;11.918;2023-04-03T05:12:17;9.10;99.90
43049;DHT22;28673;44.412;11.918;2023-04-03T05:14:49;9.20;99.90
43049;DHT22;28673;44.412;11.918;2023-04-03T05:17:19;9.20;99.90
43049;DHT22;28673;44.412;11.918;2023-04-03T05:19:52;9.20;99.90
43049;DHT22;28673;44.412;11.918;2023-04-03T05:22:22;9.20;99.90
43049;DHT22;28673;44.412;11.918;2023-04-03T05:24:54;9.20;99.90
43049;DHT22;28673;44.412;11.918;2023-04-03T05:27:24;9.20;99.90
43049;DHT22;28673;44.412;11.918;2023-04-03T05:29:58;9.20;99.90
43049;DHT22;28673;44.412;11.918;2023-04-03T05:32:29;9.20;99.90
43049;DHT22;28673;44.412;11.918;2023-04-03T05:35:14;9.20;99.90
43049;DHT22;28673;44.412;11.918;2023-04-03T05:37:48;9.20;99.90
43049;DHT22;28673;44.412;11.918;2023-04-03T05:40:24;9.20;99.90
43049;DHT22;28673;44.412;11.918;2023-04-03T05:42:53;9.20;99.90
43049;DHT22;28673;44.412;11.918;2023-04-03T05:45:21;9.20;99.90
43049;DHT22;28673;44.412;11.918;2023-04-03T05:47:50;9.20;99.90
43049;DHT22;28673;44.412;11.918;2023-04-03T05:50:16;9.20;99.90
43049;DHT22;28673;44.412;11.918;2023-04-03T05:52:45;9.20;99.90
43049;DHT22;28673;44.412;11.918;2023-04-03T05:55:14;9.20;99.90
43049;DHT22;28673;44.412;11.918;2023-04-03T05:57:53;9.30;99.90
43049;DHT22;28673;44.412;11.918;2023-04-03T06:00:42;9.40;99.90
43049;DHT22;28673;44.412;11.918;2023-04-03T06:03:12;9.40;99.90
43049;DHT22;28673;44.412;11.918;2023-04-03T06:05:38;9.50;99.90
43049;DHT22;28673;44.412;11.918;2023-04-03T06:08:04;9.50;99.90
43049;DHT22;28673;44.412;11.918;2023-04-03T06:10:30;9.60;99.90
43049;DHT22;28673;44.412;11.918;2023-04-03T06:12:56;9.70;99.90
43049;DHT22;28673;44.412;11.918;2023-04-03T06:15:22;9.80;99.90
43049;DHT22;28673;44.412;11.918;2023-04-03T06:17:54;9.90;99.90
43049;DHT22;28673;44.412;11.918;2023-04-03T06:20:21;9.90;99.90
43049;DHT22;28673;44.412;11.918;2023-04-03T06:22:53;10.00;99.90
43049;DHT22;28673;44.412;11.918;2023-04-03T06:25:52;10.10;99.90
43049;DHT22;28673;44.412;11.918;2023-04-03T06:28:26;10.10;99.90
43049;DHT22;28673;44.412;11.918;2023-04-03T06:31:09;10.20;99.90
43049;DHT22;28673;44.412;11.918;2023-04-03T06:33:35;10.30;99.90
43049;DHT22;28673;44.412;11.918;2023-04-03T06:38:28;10.40;99.90
43049;DHT22;28673;44.412;11.918;2023-04-03T06:40:54;10.40;99.90
43049;DHT22;28673;44.412;11.918;2023-04-03T06:43:21;10.40;99.90
43049;DHT22;28673;44.412;11.918;2023-04-03T06:45:47;10.50;99.90
43049;DHT22;28673;44.412;11.918;2023-04-03T06:48:13;10.50;99.90
43049;DHT22;28673;44.412;11.918;2023-04-03T06:50:40;10.60;99.90
43049;DHT22;28673;44.412;11.918;2023-04-03T06:53:06;10.60;99.90
43049;DHT22;28673;44.412;11.918;2023-04-03T06:55:32;10.70;99.90
43049;DHT22;28673;44.412;11.918;2023-04-03T06:57:58;10.70;99.90
43049;DHT22;28673;44.412;11.918;2023-04-03T07:00:24;10.80;99.90
43049;DHT22;28673;44.412;11.918;2023-04-03T07:02:51;10.80;99.90
43049;DHT22;28673;44.412;11.918;2023-04-03T07:05:18;10.90;99.90
43049;DHT22;28673;44.412;11.918;2023-04-03T07:07:46;11.00;99.90
43049;DHT22;28673;44.412;11.918;2023-04-03T07:10:12;11.10;99.90
43049;DHT22;28673;44.412;11.918;2023-04-03T07:12:38;11.20;99.90
43049;DHT22;28673;44.412;11.918;2023-04-03T07:15:08;11.30;99.90
43049;DHT22;28673;44.412;11.918;2023-04-03T07:17:34;11.40;99.90
43049;DHT22;28673;44.412;11.918;2023-04-03T07:20:02;11.60;99.90
43049;DHT22;28673;44.412;11.918;2023-04-03T07:22:33;11.70;99.90
43049;DHT22;28673;44.412;11.918;2023-04-03T07:25:00;11.90;99.90
43049;DHT22;28673;44.412;11.918;2023-04-03T07:27:27;12.00;99.90
43049;DHT22;28673;44.412;11.918;2023-04-03T07:29:53;12.20;99.90
43049;DHT22;28673;44.412;11.918;2023-04-03T07:32:19;12.30;99.90
43049;DHT22;28673;44.412;11.918;2023-04-03T07:34:45;12.40;99.90
43049;DHT22;28673;44.412;11.918;2023-04-03T07:37:10;12.50;99.90
43049;DHT22;28673;44.412;11.918;2023-04-03T07:39:36;12.50;99.90
43049;DHT22;28673;44.412;11.918;2023-04-03T07:42:02;12.60;99.90
43049;DHT22;28673;44.412;11.918;2023-04-03T07:44:28;12.70;99.90
43049;DHT22;28673;44.412;11.918;2023-04-03T07:46:54;12.90;99.90
43049;DHT22;28673;44.412;11.918;2023-04-03T07:49:21;13.00;99.90
43049;DHT22;28673;44.412;11.918;2023-04-03T07:51:50;13.00;99.90
43049;DHT22;28673;44.412;11.918;2023-04-03T07:54:16;13.00;99.90
43049;DHT22;28673;44.412;11.918;2023-04-03T07:56:43;13.10;99.90
43049;DHT22;28673;44.412;11.918;2023-04-03T07:59:10;13.00;99.90
43049;DHT22;28673;44.412;11.918;2023-04-03T08:01:36;13.00;99.90
43049;DHT22;28673;44.412;11.918;2023-04-03T08:04:02;13.00;99.90
43049;DHT22;28673;44.412;11.918;2023-04-03T08:06:30;13.10;99.90
43049;DHT22;28673;44.412;11.918;2023-04-03T08:08:57;13.20;99.90
43049;DHT22;28673;44.412;11.918;2023-04-03T08:11:24;13.30;99.90
43049;DHT22;28673;44.412;11.918;2023-04-03T08:13:52;13.30;99.90
43049;DHT22;28673;44.412;11.918;2023-04-03T08:16:20;13.30;99.90
43049;DHT22;28673;44.412;11.918;2023-04-03T08:18:48;13.30;99.90
43049;DHT22;28673;44.412;11.918;2023-04-03T08:21:14;13.30;99.90
43049;DHT22;28673;44.412;11.918;2023-04-03T08:23:40;13.40;99.90
43049;DHT22;28673;44.412;11.918;2023-04-03T08:26:13;13.40;99.90
43049;DHT22;28673;44.412;11.918;2023-04-03T08:28:39;13.50;99.90
43049;DHT22;28673;44.412;11.918;2023-04-03T08:31:08;13.50;99.90
43049;DHT22;28673;44.412;11.918;2023-04-03T08:33:36;13.60;99.90
43049;DHT22;28673;44.412;11.918;2023-04-03T08:36:07;13.80;99.90
43049;DHT22;28673;44.412;11.918;2023-04-03T08:38:41;13.90;99.90
43049;DHT22;28673;44.412;11.918;2023-04-03T08:41:29;14.10;99.90
43049;DHT22;28673;44.412;11.918;2023-04-03T08:49:51;14.70;99.90
43049;DHT22;28673;44.412;11.918;2023-04-03T08:52:33;14.90;99.90
43049;DHT22;28673;44.412;11.918;2023-04-03T08:55:06;14.90;99.90
43049;DHT22;28673;44.412;11.918;2023-04-03T08:57:35;15.00;99.90
43049;DHT22;28673;44.412;11.918;2023-04-03T09:00:13;15.00;99.90
43049;DHT22;28673;44.412;11.918;2023-04-03T09:02:44;15.10;99.90
43049;DHT22;28673;44.412;11.918;2023-04-03T09:05:14;15.10;99.90
43049;DHT22;28673;44.412;11.918;2023-04-03T09:07:47;15.00;99.90
43049;DHT22;28673;44.412;11.918;2023-04-03T09:10:15;14.90;98.80
43049;DHT22;28673;44.412;11.918;2023-04-03T09:12:51;14.90;99.30
43049;DHT22;28673;44.412;11.918;2023-04-03T09:15:23;14.70;99.10
43049;DHT22;28673;44.412;11.918;2023-04-03T09:18:00;14.70;99.90
43049;DHT22;28673;44.412;11.918;2023-04-03T09:20:39;14.70;99.10
43049;DHT22;28673;44.412;11.918;2023-04-03T09:23:19;14.80;99.50
43049;DHT22;28673;44.412;11.918;2023-04-03T09:25:47;14.70;98.50
43049;DHT22;28673;44.412;11.918;2023-04-03T09:28:15;14.70;98.50
43049;DHT22;28673;44.412;11.918;2023-04-03T09:30:41;14.80;99.00
43049;DHT22;28673;44.412;11.918;2023-04-03T09:33:08;14.90;98.70
43049;DHT22;28673;44.412;11.918;2023-04-03T09:35:36;15.00;97.30
43049;DHT22;28673;44.412;11.918;2023-04-03T09:40:41;15.40;98.40
43049;DHT22;28673;44.412;11.918;2023-04-03T09:45:49;15.80;96.50
43049;DHT22;28673;44.412;11.918;2023-04-03T09:48:24;16.10;96.50
43049;DHT22;28673;44.412;11.918;2023-04-03T09:53:37;16.40;96.20
43049;DHT22;28673;44.412;11.918;2023-04-03T10:01:28;16.70;95.50
43049;DHT22;28673;44.412;11.918;2023-04-03T10:06:33;16.90;93.70
43049;DHT22;28673;44.412;11.918;2023-04-03T10:09:17;17.00;94.80
43049;DHT22;28673;44.412;11.918;2023-04-03T10:12:06;17.20;95.00
43049;DHT22;28673;44.412;11.918;2023-04-03T10:14:35;17.50;93.90
43049;DHT22;28673;44.412;11.918;2023-04-03T10:22:30;17.90;92.30
43049;DHT22;28673;44.412;11.918;2023-04-03T10:33:19;18.50;91.30
43049;DHT22;28673;44.412;11.918;2023-04-03T10:35:53;18.70;90.90
43049;DHT22;28673;44.412;11.918;2023-04-03T10:47:21;18.80;89.00
43049;DHT22;28673;44.412;11.918;2023-04-03T10:50:00;18.70;89.70
43049;DHT22;28673;44.412;11.918;2023-04-03T10:57:48;18.90;88.30
43049;DHT22;28673;44.412;11.918;2023-04-03T11:00:35;18.90;88.40
43049;DHT22;28673;44.412;11.918;2023-04-03T11:03:33;18.90;84.30
43049;DHT22;28673;44.412;11.918;2023-04-03T11:06:04;18.80;83.90
43049;DHT22;28673;44.412;11.918;2023-04-03T11:08:42;18.80;86.20
43049;DHT22;28673;44.412;11.918;2023-04-03T11:11:13;18.90;86.20
43049;DHT22;28673;44.412;11.918;2023-04-03T11:13:57;19.00;86.40
43049;DHT22;28673;44.412;11.918;2023-04-03T11:16:33;19.10;83.90
43049;DHT22;28673;44.412;11.918;2023-04-03T11:19:04;19.00;80.30
43049;DHT22;28673;44.412;11.918;2023-04-03T11:22:16;19.10;85.60
43049;DHT22;28673;44.412;11.918;2023-04-03T11:24:42;19.40;85.80
43049;DHT22;28673;44.412;11.918;2023-04-03T11:27:17;19.50;83.30
43049;DHT22;28673;44.412;11.918;2023-04-03T11:29:46;19.60;83.60
43049;DHT22;28673;44.412;11.918;2023-04-03T11:32:57;19.70;83.30
43049;DHT22;28673;44.412;11.918;2023-04-03T11:35:27;19.60;81.30
43049;DHT22;28673;44.412;11.918;2023-04-03T11:37:54;19.60;80.90
43049;DHT22;28673;44.412;11.918;2023-04-03T11:40:28;19.50;82.40
43049;DHT22;28673;44.412;11.918;2023-04-03T11:43:16;19.50;80.30
43049;DHT22;28673;44.412;11.918;2023-04-03T11:46:02;19.60;79.40
43049;DHT22;28673;44.412;11.918;2023-04-03T11:53:38;19.70;80.40
43049;DHT22;28673;44.412;11.918;2023-04-03T12:01:56;19.90;80.70
43049;DHT22;28673;44.412;11.918;2023-04-03T12:04:26;20.00;79.80
43049;DHT22;28673;44.412;11.918;2023-04-03T12:07:01;20.00;77.50
43049;DHT22;28673;44.412;11.918;2023-04-03T12:12:40;20.10;80.00
43049;DHT22;28673;44.412;11.918;2023-04-03T12:18:41;20.00;74.90
43049;DHT22;28673;44.412;11.918;2023-04-03T12:21:09;19.80;76.90
43049;DHT22;28673;44.412;11.918;2023-04-03T12:23:37;19.90;79.50
43049;DHT22;28673;44.412;11.918;2023-04-03T12:26:24;20.00;79.10
43049;DHT22;28673;44.412;11.918;2023-04-03T12:28:52;19.90;79.10
43049;DHT22;28673;44.412;11.918;2023-04-03T12:31:19;20.00;78.50
43049;DHT22;28673;44.412;11.918;2023-04-03T12:43:17;20.40;79.10
43049;DHT22;28673;44.412;11.918;2023-04-03T12:46:33;20.50;77.20
43049;DHT22;28673;44.412;11.918;2023-04-03T12:48:53;20.50;74.90
43049;DHT22;28673;44.412;11.918;2023-04-03T12:51:39;20.50;77.70
43049;DHT22;28673;44.412;11.918;2023-04-03T12:54:27;20.60;77.40
43049;DHT22;28673;44.412;11.918;2023-04-03T12:59:36;20.50;74.40
43049;DHT22;28673;44.412;11.918;2023-04-03T13:02:02;20.20;73.10
43049;DHT22;28673;44.412;11.918;2023-04-03T13:04:30;20.10;76.90
43049;DHT22;28673;44.412;11.918;2023-04-03T13:06:56;20.10;77.00
43049;DHT22;28673;44.412;11.918;2023-04-03T13:09:28;20.20;77.60
43049;DHT22;28673;44.412;11.918;2023-04-03T13:12:11;20.30;76.80
43049;DHT22;28673;44.412;11.918;2023-04-03T13:14:38;20.30;72.90
43049;DHT22;28673;44.412;11.918;2023-04-03T13:17:10;20.20;75.30
43049;DHT22;28673;44.412;11.918;2023-04-03T13:19:38;20.30;75.20
43049;DHT22;28673;44.412;11.918;2023-04-03T13:22:26;20.30;75.10
43049;DHT22;28673;44.412;11.918;2023-04-03T13:24:55;20.40;73.90
43049;DHT22;28673;44.412;11.918;2023-04-03T13:27:22;20.30;75.00
43049;DHT22;28673;44.412;11.918;2023-04-03T13:29:52;20.30;76.30
43049;DHT22;28673;44.412;11.918;2023-04-03T13:32:21;20.30;75.70
43049;DHT22;28673;44.412;11.918;2023-04-03T13:34:48;20.30;74.00
43049;DHT22;28673;44.412;11.918;2023-04-03T13:37:29;20.30;74.10
43049;DHT22;28673;44.412;11.918;2023-04-03T13:42:31;20.30;75.20
43049;DHT22;28673;44.412;11.918;2023-04-03T13:45:18;20.30;73.90
43049;DHT22;28673;44.412;11.918;2023-04-03T13:47:47;20.30;73.30
43049;DHT22;28673;44.412;11.918;2023-04-03T13:52:46;20.20;72.30
43049;DHT22;28673;44.412;11.918;2023-04-03T13:55:33;20.10;73.80
43049;DHT22;28673;44.412;11.918;2023-04-03T14:03:28;20.30;72.00
43049;DHT22;28673;44.412;11.918;2023-04-03T14:05:54;20.30;73.80
43049;DHT22;28673;44.412;11.918;2023-04-03T14:08:21;20.30;74.10
43049;DHT22;28673;44.412;11.918;2023-04-03T14:10:47;20.40;74.10
43049;DHT22;28673;44.412;11.918;2023-04-03T14:13:16;20.30;73.00
43049;DHT22;28673;44.412;11.918;2023-04-03T14:15:43;20.20;73.90
43049;DHT22;28673;44.412;11.918;2023-04-03T14:18:13;20.30;73.50
43049;DHT22;28673;44.412;11.918;2023-04-03T14:20:40;20.10;72.50
43049;DHT22;28673;44.412;11.918;2023-04-03T14:23:06;20.20;72.80
43049;DHT22;28673;44.412;11.918;2023-04-03T14:25:32;20.30;73.20
43049;DHT22;28673;44.412;11.918;2023-04-03T14:27:58;20.50;74.90
43049;DHT22;28673;44.412;11.918;2023-04-03T14:30:34;20.50;73.90
43049;DHT22;28673;44.412;11.918;2023-04-03T14:33:02;20.60;70.40
43049;DHT22;28673;44.412;11.918;2023-04-03T14:35:28;20.60;72.20
43049;DHT22;28673;44.412;11.918;2023-04-03T14:37:54;20.40;70.80
43049;DHT22;28673;44.412;11.918;2023-04-03T14:40:24;20.50;74.00
43049;DHT22;28673;44.412;11.918;2023-04-03T14:42:51;20.50;73.00
43049;DHT22;28673;44.412;11.918;2023-04-03T14:45:21;20.50;70.90
43049;DHT22;28673;44.412;11.918;2023-04-03T14:47:49;20.40;71.40
43049;DHT22;28673;44.412;11.918;2023-04-03T14:50:20;20.20;71.50
43049;DHT22;28673;44.412;11.918;2023-04-03T14:52:47;20.00;72.80
43049;DHT22;28673;44.412;11.918;2023-04-03T14:55:18;19.90;71.60
43049;DHT22;28673;44.412;11.918;2023-04-03T14:57:49;19.80;70.80
43049;DHT22;28673;44.412;11.918;2023-04-03T15:00:18;19.70;72.10
43049;DHT22;28673;44.412;11.918;2023-04-03T15:02:45;19.70;73.60
43049;DHT22;28673;44.412;11.918;2023-04-03T15:05:12;19.70;72.00
43049;DHT22;28673;44.412;11.918;2023-04-03T15:07:48;19.60;71.20
43049;DHT22;28673;44.412;11.918;2023-04-03T15:10:22;19.50;72.30
43049;DHT22;28673;44.412;11.918;2023-04-03T15:12:49;19.40;72.50
43049;DHT22;28673;44.412;11.918;2023-04-03T15:15:20;19.30;72.00
43049;DHT22;28673;44.412;11.918;2023-04-03T15:17:48;19.10;73.80
43049;DHT22;28673;44.412;11.918;2023-04-03T15:20:21;19.10;74.60
43049;DHT22;28673;44.412;11.918;2023-04-03T15:22:48;19.10;75.20
43049;DHT22;28673;44.412;11.918;2023-04-03T15:25:14;19.00;75.20
43049;DHT22;28673;44.412;11.918;2023-04-03T15:27:40;19.00;75.90
43049;DHT22;28673;44.412;11.918;2023-04-03T15:30:08;18.90;74.90
43049;DHT22;28673;44.412;11.918;2023-04-03T15:32:34;18.80;74.60
43049;DHT22;28673;44.412;11.918;2023-04-03T15:35:01;18.70;75.00
43049;DHT22;28673;44.412;11.918;2023-04-03T15:37:27;18.70;75.20
43049;DHT22;28673;44.412;11.918;2023-04-03T15:39:56;18.60;75.50
43049;DHT22;28673;44.412;11.918;2023-04-03T15:42:22;18.60;75.00
43049;DHT22;28673;44.412;11.918;2023-04-03T15:44:48;18.50;74.90
43049;DHT22;28673;44.412;11.918;2023-04-03T15:47:14;18.40;74.50
43049;DHT22;28673;44.412;11.918;2023-04-03T15:49:40;18.20;74.50
43049;DHT22;28673;44.412;11.918;2023-04-03T15:52:06;18.10;74.10
43049;DHT22;28673;44.412;11.918;2023-04-03T15:54:32;17.90;74.70
43049;DHT22;28673;44.412;11.918;2023-04-03T15:56:58;17.70;74.30
43049;DHT22;28673;44.412;11.918;2023-04-03T15:59:24;17.40;75.00
43049;DHT22;28673;44.412;11.918;2023-04-03T16:01:50;17.10;76.00
43049;DHT22;28673;44.412;11.918;2023-04-03T16:04:17;16.90;75.90
43049;DHT22;28673;44.412;11.918;2023-04-03T16:06:44;16.70;76.50
43049;DHT22;28673;44.412;11.918;2023-04-03T16:09:10;16.50;76.90
43049;DHT22;28673;44.412;11.918;2023-04-03T16:11:36;16.30;77.60
43049;DHT22;28673;44.412;11.918;2023-04-03T16:14:05;16.20;77.80
43049;DHT22;28673;44.412;11.918;2023-04-03T16:16:32;15.90;78.60
43049;DHT22;28673;44.412;11.918;2023-04-03T16:18:58;15.70;79.20
43049;DHT22;28673;44.412;11.918;2023-04-03T16:21:27;15.50;80.10
43049;DHT22;28673;44.412;11.918;2023-04-03T16:23:53;15.40;80.30
43049;DHT22;28673;44.412;11.918;2023-04-03T16:26:21;15.30;80.50
43049;DHT22;28673;44.412;11.918;2023-04-03T16:28:47;15.10;80.70
43049;DHT22;28673;44.412;11.918;2023-04-03T16:31:13;15.00;81.20
43049;DHT22;28673;44.412;11.918;2023-04-03T16:33:38;14.80;81.30
43049;DHT22;28673;44.412;11.918;2023-04-03T16:36:05;14.70;81.30
43049;DHT22;28673;44.412;11.918;2023-04-03T16:38:33;14.50;81.30
43049;DHT22;28673;44.412;11.918;2023-04-03T16:40:59;14.30;81.40
43049;DHT22;28673;44.412;11.918;2023-04-03T16:43:30;14.20;82.20
43049;DHT22;28673;44.412;11.918;2023-04-03T16:45:57;14.10;82.90
43049;DHT22;28673;44.412;11.918;2023-04-03T16:48:22;14.00;82.90
43049;DHT22;28673;44.412;11.918;2023-04-03T16:50:49;13.90;83.00
43049;DHT22;28673;44.412;11.918;2023-04-03T16:53:23;13.80;83.30
43049;DHT22;28673;44.412;11.918;2023-04-03T16:55:49;13.70;84.10
43049;DHT22;28673;44.412;11.918;2023-04-03T16:58:15;13.60;83.90
43049;DHT22;28673;44.412;11.918;2023-04-03T17:00:42;13.50;84.60
43049;DHT22;28673;44.412;11.918;2023-04-03T17:03:09;13.40;85.00
43049;DHT22;28673;44.412;11.918;2023-04-03T17:05:35;13.30;85.00
43049;DHT22;28673;44.412;11.918;2023-04-03T17:08:02;13.30;86.40
43049;DHT22;28673;44.412;11.918;2023-04-03T17:10:28;13.20;85.70
43049;DHT22;28673;44.412;11.918;2023-04-03T17:12:53;13.10;85.50
43049;DHT22;28673;44.412;11.918;2023-04-03T17:15:20;13.00;85.90
43049;DHT22;28673;44.412;11.918;2023-04-03T17:17:47;13.00;86.30